createdAt,value
2023-05-06T00:01:54.257Z,100440.25
2023-05-06T00:04:20.999Z,100436.59
2023-05-06T00:06:48.972Z,100439.94
2023-05-06T00:09:16.045Z,100442.50
2023-05-06T00:11:42.580Z,100433.88
2023-05-06T00:14:12.302Z,100432.19
2023-05-06T00:16:43.967Z,100431.31
2023-05-06T00:19:10.588Z,100435.53
2023-05-06T00:21:37.235Z,100441.53
2023-05-06T00:24:03.915Z,100444.13
2023-05-06T00:26:30.951Z,100444.06
2023-05-06T00:28:57.732Z,100440.50
2023-05-06T00:31:24.968Z,100442.19
2023-05-06T00:33:51.572Z,100442.06
2023-05-06T00:36:18.600Z,100440.44
2023-05-06T00:38:45.760Z,100438.69
2023-05-06T00:41:12.476Z,100442.19
2023-05-06T00:43:39.091Z,100447.34
2023-05-06T00:46:08.085Z,100451.00
2023-05-06T00:48:37.611Z,100442.50
2023-05-06T00:51:04.298Z,100440.00
2023-05-06T00:53:30.889Z,100441.69
2023-05-06T00:56:02.546Z,100439.09
2023-05-06T00:58:31.954Z,100436.47
2023-05-06T01:00:58.614Z,100445.06
2023-05-06T01:03:28.591Z,100442.38
2023-05-06T01:06:15.635Z,100436.22
2023-05-06T01:08:45.048Z,100436.09
2023-05-06T01:11:15.615Z,100429.75
2023-05-06T01:13:45.290Z,100432.22
2023-05-06T01:16:12.507Z,100443.34
2023-05-06T01:18:39.150Z,100445.88
2023-05-06T01:21:10.673Z,100437.19
2023-05-06T01:23:50.158Z,100430.97
2023-05-06T01:26:19.062Z,100426.63
2023-05-06T01:28:45.650Z,100424.00
2023-05-06T01:31:13.519Z,100423.09
2023-05-06T01:33:44.957Z,100417.13
2023-05-06T01:36:11.627Z,100414.53
2023-05-06T01:38:42.104Z,100417.13
2023-05-06T01:41:11.138Z,100415.25
2023-05-06T01:43:41.917Z,100410.88
2023-05-06T01:46:10.331Z,100410.09
2023-05-06T01:48:39.416Z,100413.50
2023-05-06T01:51:06.130Z,100406.53
2023-05-06T01:53:33.606Z,100416.19
2023-05-06T01:56:00.707Z,100415.41
2023-05-06T01:58:27.307Z,100414.44
2023-05-06T02:00:58.415Z,100410.03
2023-05-06T02:03:25.458Z,100410.09
2023-05-06T02:05:52.223Z,100409.91
2023-05-06T02:08:20.371Z,100410.75
2023-05-06T02:10:47.110Z,100415.91
2023-05-06T02:13:13.934Z,100422.72
2023-05-06T02:15:40.713Z,100413.91
2023-05-06T02:18:11.659Z,100420.97
2023-05-06T02:20:38.295Z,100414.03
2023-05-06T02:23:05.599Z,100407.78
2023-05-06T02:25:32.182Z,100413.00
2023-05-06T02:27:58.868Z,100421.66
2023-05-06T02:30:25.480Z,100420.78
2023-05-06T02:32:52.143Z,100424.75
2023-05-06T02:35:21.457Z,100423.63
2023-05-06T02:37:48.737Z,100420.00
2023-05-06T02:40:17.811Z,100419.78
2023-05-06T02:42:47.462Z,100421.59
2023-05-06T02:45:14.100Z,100427.63
2023-05-06T02:47:41.344Z,100424.84
2023-05-06T02:50:08.135Z,100427.28
2023-05-06T02:52:37.102Z,100426.50
2023-05-06T02:55:03.863Z,100433.69
2023-05-06T02:57:33.422Z,100431.44
2023-05-06T03:00:02.186Z,100435.81
2023-05-06T03:02:31.208Z,100428.00
2023-05-06T03:04:57.809Z,100434.22
2023-05-06T03:07:24.403Z,100428.16
2023-05-06T03:09:51.196Z,100422.88
2023-05-06T03:12:17.887Z,100427.28
2023-05-06T03:14:44.685Z,100422.78
2023-05-06T03:17:11.325Z,100429.72
2023-05-06T03:19:37.934Z,100424.44
2023-05-06T03:22:06.807Z,100429.56
2023-05-06T03:24:36.241Z,100425.22
2023-05-06T03:27:05.385Z,100424.34
2023-05-06T03:29:35.162Z,100418.28
2023-05-06T03:32:07.170Z,100413.84
2023-05-06T03:34:42.665Z,100412.03
2023-05-06T03:37:12.772Z,100406.84
2023-05-06T03:39:45.246Z,100406.91
2023-05-06T03:42:14.550Z,100406.03
2023-05-06T03:44:41.311Z,100410.25
2023-05-06T03:47:08.225Z,100415.50
2023-05-06T03:49:35.088Z,100415.59
2023-05-06T03:52:01.852Z,100412.97
2023-05-06T03:54:29.090Z,100415.59
2023-05-06T03:56:56.307Z,100418.22
2023-05-06T03:59:27.956Z,100420.13
2023-05-06T04:01:56.521Z,100423.44
2023-05-06T04:04:25.291Z,100431.25
2023-05-06T04:06:51.891Z,100428.91
2023-05-06T04:09:18.663Z,100433.28
2023-05-06T04:11:46.178Z,100437.75
2023-05-06T04:14:20.645Z,100444.88
2023-05-06T04:16:48.204Z,100434.38
2023-05-06T04:19:17.951Z,100431.84
2023-05-06T04:21:46.017Z,100428.59
2023-05-06T04:24:15.935Z,100427.00
2023-05-06T04:26:45.045Z,100435.03
2023-05-06T04:29:14.756Z,100432.63
2023-05-06T04:31:54.124Z,100433.47
2023-05-06T04:34:21.778Z,100432.72
2023-05-06T04:36:49.628Z,100433.78
2023-05-06T04:39:32.414Z,100432.19
2023-05-06T04:41:59.071Z,100437.56
2023-05-06T04:44:36.675Z,100444.81
2023-05-06T04:47:11.079Z,100439.03
2023-05-06T04:49:39.778Z,100450.72
2023-05-06T04:52:07.560Z,100457.03
2023-05-06T04:54:34.196Z,100451.69
2023-05-06T04:57:05.869Z,100455.16
2023-05-06T04:59:33.109Z,100460.63
2023-05-06T05:02:04.178Z,100460.81
2023-05-06T05:04:30.902Z,100462.66
2023-05-06T05:06:58.642Z,100461.09
2023-05-06T05:09:25.901Z,100473.28
2023-05-06T05:11:54.941Z,100463.81
2023-05-06T05:14:23.712Z,100466.63
2023-05-06T05:16:50.398Z,100466.81
2023-05-06T05:19:17.560Z,100456.53
2023-05-06T05:21:44.153Z,100452.22
2023-05-06T05:24:12.673Z,100454.88
2023-05-06T05:26:39.337Z,100460.06
2023-05-06T05:29:06.725Z,100461.03
2023-05-06T05:31:33.884Z,100464.63
2023-05-06T05:34:01.411Z,100455.09
2023-05-06T05:36:28.371Z,100454.34
2023-05-06T05:38:57.618Z,100457.03
2023-05-06T05:41:27.147Z,100451.84
2023-05-06T05:43:55.116Z,100458.03
2023-05-06T05:46:22.003Z,100458.09
2023-05-06T05:48:50.042Z,100451.06
2023-05-06T05:51:22.286Z,100465.03
2023-05-06T05:53:52.878Z,100461.66
2023-05-06T05:56:21.765Z,100463.34
2023-05-06T05:58:49.453Z,100452.75
2023-05-06T06:01:16.381Z,100462.41
2023-05-06T06:03:43.779Z,100457.22
2023-05-06T06:06:13.103Z,100448.69
2023-05-06T06:08:40.663Z,100454.16
2023-05-06T06:11:08.131Z,100447.25
2023-05-06T06:13:42.136Z,100454.34
2023-05-06T06:16:09.134Z,100449.28
2023-05-06T06:18:38.546Z,100455.50
2023-05-06T06:21:05.495Z,100452.97
2023-05-06T06:23:32.386Z,100455.63
2023-05-06T06:25:59.579Z,100452.31
2023-05-06T06:28:26.418Z,100449.75
2023-05-06T06:30:53.890Z,100449.75
2023-05-06T06:33:22.581Z,100449.91
2023-05-06T06:35:49.225Z,100441.28
2023-05-06T06:38:15.852Z,100450.13
2023-05-06T06:40:47.198Z,100435.31
2023-05-06T06:43:16.977Z,100439.66
2023-05-06T06:45:49.685Z,100436.06
2023-05-06T06:48:16.554Z,100430.94
2023-05-06T06:50:45.897Z,100430.16
2023-05-06T06:53:12.488Z,100426.69
2023-05-06T06:55:39.447Z,100422.31
2023-05-06T06:58:06.144Z,100424.94
2023-05-06T07:00:32.750Z,100424.13
2023-05-06T07:02:59.411Z,100425.94
2023-05-06T07:05:27.215Z,100433.81
2023-05-06T07:07:56.256Z,100424.19
2023-05-06T07:10:25.921Z,100432.97
2023-05-06T07:12:52.659Z,100425.09
2023-05-06T07:15:19.881Z,100431.22
2023-05-06T07:17:46.809Z,100429.50
2023-05-06T07:20:13.543Z,100436.50
2023-05-06T07:22:41.409Z,100433.00
2023-05-06T07:25:09.017Z,100429.50
2023-05-06T07:27:38.340Z,100426.84
2023-05-06T07:30:08.310Z,100427.66
2023-05-06T07:32:35.086Z,100432.03
2023-05-06T07:35:01.850Z,100431.13
2023-05-06T07:37:29.058Z,100426.72
2023-05-06T07:39:56.794Z,100427.56
2023-05-06T07:42:23.502Z,100423.19
2023-05-06T07:44:50.351Z,100423.25
2023-05-06T07:47:30.031Z,100423.22
2023-05-06T07:49:56.793Z,100431.06
2023-05-06T07:52:23.675Z,100425.81
2023-05-06T07:54:50.345Z,100432.03
2023-05-06T07:57:17.133Z,100432.09
2023-05-06T07:59:46.636Z,100422.44
2023-05-06T08:02:13.513Z,100423.25
2023-05-06T08:04:40.540Z,100422.28
2023-05-06T08:07:07.196Z,100425.78
2023-05-06T08:09:36.349Z,100425.63
2023-05-06T08:12:05.935Z,100426.47
2023-05-06T08:14:35.050Z,100439.69
2023-05-06T08:17:02.822Z,100434.50
2023-05-06T08:19:31.977Z,100435.44
2023-05-06T08:22:01.147Z,100435.38
2023-05-06T08:24:28.356Z,100431.00
2023-05-06T08:26:55.236Z,100431.78
2023-05-06T08:29:21.916Z,100428.16
2023-05-06T08:31:48.630Z,100427.19
2023-05-06T08:34:21.311Z,100431.63
2023-05-06T08:36:50.906Z,100421.94
2023-05-06T08:39:18.166Z,100421.88
2023-05-06T08:41:47.393Z,100426.19
2023-05-06T08:44:18.735Z,100423.59
2023-05-06T08:46:46.200Z,100422.91
2023-05-06T08:49:12.876Z,100416.63
2023-05-06T08:51:39.495Z,100419.97
2023-05-06T08:54:06.096Z,100404.91
2023-05-06T08:56:33.301Z,100413.66
2023-05-06T08:59:00.205Z,100405.88
2023-05-06T09:01:29.448Z,100411.16
2023-05-06T09:03:56.489Z,100414.81
2023-05-06T09:06:25.559Z,100414.09
2023-05-06T09:08:52.268Z,100413.28
2023-05-06T09:11:19.568Z,100403.53
2023-05-06T09:13:46.647Z,100404.31
2023-05-06T09:16:26.405Z,100411.38
2023-05-06T09:18:55.915Z,100399.78
2023-05-06T09:21:22.752Z,100397.06
2023-05-06T09:23:50.009Z,100395.94
2023-05-06T09:26:16.953Z,100398.34
2023-05-06T09:28:47.045Z,100384.97
2023-05-06T09:31:16.557Z,100382.88
2023-05-06T09:33:43.328Z,100377.22
2023-05-06T09:36:13.514Z,100377.00
2023-05-06T09:38:41.065Z,100376.00
2023-05-06T09:41:07.938Z,100368.28
2023-05-06T09:43:36.751Z,100381.00
2023-05-06T09:46:06.113Z,100374.69
2023-05-06T09:48:32.931Z,100368.06
2023-05-06T09:51:01.242Z,100364.88
2023-05-06T09:53:28.957Z,100365.06
2023-05-06T09:55:56.345Z,100356.22
2023-05-06T09:58:25.468Z,100351.44
2023-05-06T10:00:52.790Z,100347.13
2023-05-06T10:03:19.846Z,100346.22
2023-05-06T10:05:46.601Z,100340.03
2023-05-06T10:08:15.385Z,100340.03
2023-05-06T10:10:42.123Z,100339.72
2023-05-06T10:13:08.835Z,100336.09
2023-05-06T10:15:37.887Z,100341.69
2023-05-06T10:18:11.988Z,100346.19
2023-05-06T10:20:38.578Z,100333.44
2023-05-06T10:23:24.707Z,100330.31
2023-05-06T10:25:53.655Z,100331.09
2023-05-06T10:28:23.011Z,100329.91
2023-05-06T10:31:00.217Z,100320.97
2023-05-06T10:33:26.858Z,100330.97
2023-05-06T10:36:16.874Z,100326.31
2023-05-06T10:38:47.363Z,100329.81
2023-05-06T10:41:14.377Z,100319.31
2023-05-06T10:43:41.739Z,100314.94
2023-05-06T10:46:11.922Z,100317.19
2023-05-06T10:48:39.508Z,100306.91
2023-05-06T10:51:22.914Z,100309.09
2023-05-06T10:54:05.035Z,100311.28
2023-05-06T10:56:32.292Z,100303.31
2023-05-06T10:59:08.827Z,100304.53
2023-05-06T11:01:47.529Z,100294.81
2023-05-06T11:04:15.069Z,100290.63
2023-05-06T11:06:44.973Z,100297.03
2023-05-06T11:09:21.203Z,100287.31
2023-05-06T11:12:01.001Z,100290.88
2023-05-06T11:14:27.652Z,100288.22
2023-05-06T11:16:56.922Z,100283.38
2023-05-06T11:19:24.303Z,100282.16
2023-05-06T11:21:51.458Z,100284.75
2023-05-06T11:24:22.514Z,100287.47
2023-05-06T11:26:51.525Z,100284.13
2023-05-06T11:29:20.982Z,100288.13
2023-05-06T11:31:53.175Z,100289.91
2023-05-06T11:34:23.882Z,100285.41
2023-05-06T11:36:57.253Z,100281.50
2023-05-06T11:39:30.672Z,100286.19
2023-05-06T11:42:02.853Z,100293.44
2023-05-06T11:44:30.758Z,100290.34
2023-05-06T11:46:59.706Z,100292.34
2023-05-06T11:49:29.210Z,100296.22
2023-05-06T11:51:58.739Z,100289.09
2023-05-06T11:54:26.058Z,100292.72
2023-05-06T11:56:53.398Z,100302.63
2023-05-06T11:59:28.285Z,100297.47
2023-05-06T12:01:56.387Z,100293.31
2023-05-06T12:04:23.978Z,100297.16
2023-05-06T12:07:00.680Z,100290.03
2023-05-06T12:09:27.895Z,100293.59
2023-05-06T12:11:57.395Z,100288.81
2023-05-06T12:14:26.447Z,100291.59
2023-05-06T12:16:55.932Z,100293.09
2023-05-06T12:19:23.041Z,100290.56
2023-05-06T12:21:52.506Z,100284.56
2023-05-06T12:24:26.801Z,100290.22
2023-05-06T12:26:58.955Z,100287.75
2023-05-06T12:29:25.864Z,100286.00
2023-05-06T12:32:10.976Z,100271.91
2023-05-06T12:34:41.117Z,100277.31
2023-05-06T12:37:12.570Z,100284.47
2023-05-06T12:39:49.040Z,100277.00
2023-05-06T12:42:20.121Z,100275.53
2023-05-06T12:44:47.197Z,100279.66
2023-05-06T12:47:20.668Z,100275.25
2023-05-06T12:49:50.159Z,100276.16
2023-05-06T12:52:20.007Z,100279.66
2023-05-06T12:54:46.924Z,100277.31
2023-05-06T12:57:13.955Z,100279.13
2023-05-06T12:59:45.529Z,100278.31
2023-05-06T13:02:14.571Z,100273.09
2023-05-06T13:04:42.135Z,100274.03
2023-05-06T13:07:11.484Z,100275.69
2023-05-06T13:09:38.422Z,100264.44
2023-05-06T13:12:05.301Z,100284.03
2023-05-06T13:14:40.108Z,100261.06
2023-05-06T13:17:14.856Z,100271.63
2023-05-06T13:19:42.646Z,100262.94
2023-05-06T13:22:11.778Z,100261.97
2023-05-06T13:24:40.840Z,100264.56
2023-05-06T13:27:12.777Z,100276.09
2023-05-06T13:29:39.598Z,100276.44
2023-05-06T13:32:09.110Z,100276.56
2023-05-06T13:34:36.077Z,100268.78
2023-05-06T13:37:10.171Z,100271.34
2023-05-06T13:39:36.813Z,100277.56
2023-05-06T13:42:08.222Z,100277.13
2023-05-06T13:44:35.887Z,100281.72
2023-05-06T13:47:04.888Z,100287.94
2023-05-06T13:49:40.173Z,100287.13
2023-05-06T13:52:08.412Z,100292.56
2023-05-06T13:54:35.846Z,100280.88
2023-05-06T13:57:10.010Z,100293.31
2023-05-06T13:59:38.741Z,100287.06
2023-05-06T14:02:09.621Z,100295.63
2023-05-06T14:04:39.577Z,100286.91
2023-05-06T14:07:06.234Z,100287.22
2023-05-06T14:09:32.978Z,100283.78
2023-05-06T14:11:59.778Z,100296.44
2023-05-06T14:14:27.493Z,100290.56
2023-05-06T14:16:55.651Z,100282.75
2023-05-06T14:19:22.355Z,100281.06
2023-05-06T14:21:51.891Z,100281.09
2023-05-06T14:24:20.972Z,100281.97
2023-05-06T14:26:47.791Z,100285.50
2023-05-06T14:29:14.421Z,100294.34
2023-05-06T14:31:46.605Z,100288.22
2023-05-06T14:34:18.286Z,100287.38
2023-05-06T14:36:47.094Z,100293.59
2023-05-06T14:39:14.334Z,100281.31
2023-05-06T14:41:40.975Z,100278.66
2023-05-06T14:44:10.188Z,100280.47
2023-05-06T14:46:36.778Z,100271.69
2023-05-06T14:49:03.370Z,100272.56
2023-05-06T14:51:30.193Z,100280.41
2023-05-06T14:53:57.266Z,100278.59
2023-05-06T14:56:24.089Z,100271.53
2023-05-06T14:58:50.827Z,100262.69
2023-05-06T15:01:17.570Z,100259.97
2023-05-06T15:03:45.356Z,100262.59
2023-05-06T15:06:12.619Z,100263.44
2023-05-06T15:08:41.980Z,100251.16
2023-05-06T15:11:08.517Z,100243.31
2023-05-06T15:13:37.628Z,100240.56
2023-05-06T15:16:04.797Z,100251.84
2023-05-06T15:18:31.532Z,100249.97
2023-05-06T15:21:01.013Z,100252.56
2023-05-06T15:23:30.709Z,100252.56
2023-05-06T15:25:58.152Z,100247.25
2023-05-06T15:28:24.882Z,100240.13
2023-05-06T15:30:54.194Z,100241.75
2023-05-06T15:33:20.891Z,100236.28
2023-05-06T15:35:47.563Z,100236.88
2023-05-06T15:38:14.226Z,100223.47
2023-05-06T15:40:40.880Z,100218.91
2023-05-06T15:43:08.859Z,100223.59
2023-05-06T15:45:38.233Z,100230.50
2023-05-06T15:48:07.262Z,100234.88
2023-05-06T15:50:34.362Z,100245.09
2023-05-06T15:53:02.230Z,100240.97
2023-05-06T15:55:29.065Z,100234.69
2023-05-06T15:58:00.440Z,100230.78
2023-05-06T16:00:28.081Z,100233.56
2023-05-06T16:02:54.873Z,100231.69
2023-05-06T16:05:24.057Z,100234.78
2023-05-06T16:07:50.726Z,100227.03
2023-05-06T16:10:17.385Z,100228.75
2023-05-06T16:12:46.444Z,100215.91
2023-05-06T16:15:13.113Z,100226.44
2023-05-06T16:17:42.176Z,100224.53
2023-05-06T16:20:10.632Z,100222.66
2023-05-06T16:22:40.708Z,100228.69
2023-05-06T16:25:10.329Z,100221.09
2023-05-06T16:27:36.943Z,100231.03
2023-05-06T16:30:03.710Z,100224.16
2023-05-06T16:32:30.472Z,100230.84
2023-05-06T16:34:57.235Z,100240.41
2023-05-06T16:37:26.290Z,100241.09
2023-05-06T16:39:57.564Z,100241.78
2023-05-06T16:42:26.752Z,100250.06
2023-05-06T16:44:53.454Z,100249.53
2023-05-06T16:47:24.314Z,100250.75
2023-05-06T16:49:53.931Z,100250.97
2023-05-06T16:52:20.747Z,100251.16
2023-05-06T16:54:47.326Z,100252.13
2023-05-06T16:57:14.337Z,100254.94
2023-05-06T16:59:40.990Z,100255.00
2023-05-06T17:02:07.698Z,100247.16
2023-05-06T17:04:34.379Z,100250.72
2023-05-06T17:07:01.197Z,100246.38
2023-05-06T17:09:30.246Z,100244.69
2023-05-06T17:11:56.864Z,100245.66
2023-05-06T17:14:25.957Z,100235.25
2023-05-06T17:16:52.829Z,100229.19
2023-05-06T17:19:19.565Z,100235.41
2023-05-06T17:21:46.106Z,100233.69
2023-05-06T17:24:12.692Z,100234.66
2023-05-06T17:26:41.865Z,100234.69
2023-05-06T17:29:09.310Z,100231.31
2023-05-06T17:31:36.266Z,100231.41
2023-05-06T17:34:03.875Z,100227.00
2023-05-06T17:36:31.260Z,100228.78
2023-05-06T17:39:07.662Z,100231.41
2023-05-06T17:41:36.731Z,100225.22
2023-05-06T17:44:05.945Z,100218.25
2023-05-06T17:46:33.534Z,100227.03
2023-05-06T17:49:00.647Z,100228.00
2023-05-06T17:51:27.559Z,100223.69
2023-05-06T17:53:54.156Z,100225.50
2023-05-06T17:56:20.968Z,100229.06
2023-05-06T17:58:50.037Z,100228.22
2023-05-06T18:01:16.648Z,100223.81
2023-05-06T18:03:45.065Z,100225.56
2023-05-06T18:06:12.002Z,100230.81
2023-05-06T18:08:38.619Z,100232.56
2023-05-06T18:11:06.015Z,100232.63
2023-05-06T18:13:36.405Z,100240.56
2023-05-06T18:16:05.816Z,100236.13
2023-05-06T18:18:32.484Z,100244.88
2023-05-06T18:20:59.054Z,100242.28
2023-05-06T18:23:26.542Z,100252.81
2023-05-06T18:25:58.552Z,100261.66
2023-05-06T18:28:27.646Z,100266.03
2023-05-06T18:30:56.728Z,100259.97
2023-05-06T18:33:25.446Z,100262.69
2023-05-06T18:35:52.071Z,100260.06
2023-05-06T18:38:18.762Z,100247.78
2023-05-06T18:40:47.967Z,100254.84
2023-05-06T18:43:14.590Z,100259.25
2023-05-06T18:45:43.715Z,100254.84
2023-05-06T18:48:11.010Z,100248.72
2023-05-06T18:50:37.786Z,100252.22
2023-05-06T18:53:04.708Z,100252.19
2023-05-06T18:55:31.389Z,100251.34
2023-05-06T18:58:04.766Z,100253.97
2023-05-06T19:00:32.652Z,100259.31
2023-05-06T19:02:59.287Z,100250.56
2023-05-06T19:05:26.133Z,100259.34
2023-05-06T19:07:52.708Z,100258.50
2023-05-06T19:10:19.430Z,100255.00
2023-05-06T19:12:46.193Z,100265.63
2023-05-06T19:15:15.357Z,100265.66
2023-05-06T19:17:42.142Z,100263.03
2023-05-06T19:20:09.213Z,100258.63
2023-05-06T19:22:40.702Z,100259.50
2023-05-06T19:25:08.301Z,100270.88
2023-05-06T19:27:37.474Z,100282.25
2023-05-06T19:30:04.279Z,100296.28
2023-05-06T19:32:31.542Z,100290.13
2023-05-06T19:34:59.174Z,100288.38
2023-05-06T19:37:34.415Z,100280.47
2023-05-06T19:40:04.309Z,100277.84
2023-05-06T19:42:33.702Z,100290.09
2023-05-06T19:45:06.132Z,100295.34
2023-05-06T19:47:32.982Z,100303.22
2023-05-06T19:49:59.726Z,100307.63
2023-05-06T19:52:30.620Z,100308.53
2023-05-06T19:54:57.594Z,100315.53
2023-05-06T19:57:27.721Z,100321.66
2023-05-06T19:59:56.876Z,100317.34
2023-05-06T20:02:23.954Z,100327.75
2023-05-06T20:04:51.126Z,100316.38
2023-05-06T20:07:18.100Z,100319.00
2023-05-06T20:09:44.773Z,100324.22
2023-05-06T20:12:13.974Z,100323.31
2023-05-06T20:14:40.674Z,100323.34
2023-05-06T20:17:09.551Z,100329.44
2023-05-06T20:19:38.653Z,100321.53
2023-05-06T20:22:05.384Z,100308.44
2023-05-06T20:24:32.211Z,100304.97
2023-05-06T20:26:59.209Z,100298.00
2023-05-06T20:29:28.528Z,100287.53
2023-05-06T20:31:55.407Z,100286.69
2023-05-06T20:34:22.093Z,100281.44
2023-05-06T20:36:50.236Z,100272.66
2023-05-06T20:39:19.216Z,100277.03
2023-05-06T20:41:48.386Z,100273.53
2023-05-06T20:44:15.413Z,100279.69
2023-05-06T20:46:44.522Z,100283.19
2023-05-06T20:49:12.133Z,100285.78
2023-05-06T20:51:41.570Z,100273.53
2023-05-06T20:54:08.610Z,100278.78
2023-05-06T20:56:37.726Z,100270.91
2023-05-06T20:59:06.897Z,100272.63
2023-05-06T21:01:33.572Z,100264.75
2023-05-06T21:04:04.782Z,100259.50
2023-05-06T21:06:36.202Z,100264.78
2023-05-06T21:09:03.226Z,100260.41
2023-05-06T21:11:37.368Z,100257.78
2023-05-06T21:14:06.855Z,100250.78
2023-05-06T21:16:33.580Z,100263.91
2023-05-06T21:19:02.667Z,100264.81
2023-05-06T21:21:32.844Z,100254.28
2023-05-06T21:24:02.062Z,100260.41
2023-05-06T21:26:32.690Z,100256.03
2023-05-06T21:29:03.869Z,100268.28
2023-05-06T21:31:30.687Z,100264.78
2023-05-06T21:34:00.526Z,100267.38
2023-05-06T21:36:27.385Z,100269.09
2023-05-06T21:39:01.782Z,100265.56
2023-05-06T21:41:28.725Z,100273.41
2023-05-06T21:43:55.389Z,100278.63
2023-05-06T21:46:24.796Z,100278.63
2023-05-06T21:48:51.460Z,100284.72
2023-05-06T21:51:18.038Z,100284.72
2023-05-06T21:53:50.609Z,100279.44
2023-05-06T21:56:20.253Z,100286.41
2023-05-06T21:58:49.529Z,100296.03
2023-05-06T22:01:16.152Z,100290.75
2023-05-06T22:03:43.727Z,100287.25
2023-05-06T22:06:10.399Z,100289.88
2023-05-06T22:08:37.138Z,100289.06
2023-05-06T22:11:06.660Z,100291.72
2023-05-06T22:13:36.257Z,100297.84
2023-05-06T22:16:05.697Z,100295.16
2023-05-06T22:18:36.031Z,100299.44
2023-05-06T22:21:03.486Z,100292.44
2023-05-06T22:23:30.170Z,100287.16
2023-05-06T22:26:00.306Z,100277.56
2023-05-06T22:28:27.165Z,100277.63
2023-05-06T22:30:56.686Z,100277.56
2023-05-06T22:33:25.790Z,100278.47
2023-05-06T22:35:55.562Z,100281.97
2023-05-06T22:38:22.294Z,100275.03
2023-05-06T22:40:49.326Z,100280.31
2023-05-06T22:43:15.983Z,100274.22
2023-05-06T22:45:45.132Z,100284.75
2023-05-06T22:48:12.323Z,100285.59
2023-05-06T22:50:39.040Z,100266.34
2023-05-06T22:53:14.582Z,100277.72
2023-05-06T22:55:42.506Z,100279.44
2023-05-06T22:58:11.829Z,100282.06
2023-05-06T23:00:41.066Z,100279.44
2023-05-06T23:03:08.091Z,100278.56
2023-05-06T23:05:37.623Z,100279.44
2023-05-06T23:08:06.374Z,100275.03
2023-05-06T23:10:32.971Z,100283.78
2023-05-06T23:13:03.129Z,100286.31
2023-05-06T23:15:29.781Z,100285.41
2023-05-06T23:17:58.780Z,100276.75
2023-05-06T23:20:30.183Z,100283.78
2023-05-06T23:22:56.858Z,100280.25
2023-05-06T23:25:28.291Z,100275.84
2023-05-06T23:27:55.350Z,100271.53
2023-05-06T23:30:22.003Z,100267.19
2023-05-06T23:32:48.616Z,100267.19
2023-05-06T23:35:15.329Z,100267.22
2023-05-06T23:37:41.972Z,100265.47
2023-05-06T23:40:08.749Z,100268.13
2023-05-06T23:42:35.545Z,100260.22
2023-05-06T23:45:05.089Z,100267.22
2023-05-06T23:47:34.055Z,100257.59
2023-05-06T23:50:01.082Z,100272.47
2023-05-06T23:52:30.262Z,100270.69
2023-05-06T23:54:56.833Z,100273.31
2023-05-06T23:57:25.836Z,100275.06
2023-05-06T23:59:52.452Z,100275.06
